Time;durP1;ratioP1;P1;durP2;ratioP2;P2;SDS_P1;SDS_P2;PMS_P1;PMS_P2;Temp;Humidity;BMP_temperature;BMP_pressure;BME280_temperature;BME280_humidity;BME280_pressure;Samples;Min_cycle;Max_cycle;Signal;HPM_P1;HPM_P2
2021/07/12 00:00:59;;;;;;;5.00;4.70;;;22.50;99.90;;;22.66;59.32;101030.91;4887609;28;97453;-49
2021/07/12 00:03:25;;;;;;;4.80;4.40;;;22.60;99.90;;;22.72;59.15;101026.91;4901103;28;99238;-51
2021/07/12 00:05:51;;;;;;;5.50;5.10;;;22.60;99.90;;;22.76;58.95;101021.13;4909641;28;99609;-52
2021/07/12 00:08:17;;;;;;;4.93;4.53;;;22.60;99.90;;;22.78;58.94;101029.94;4881694;28;109484;-51
2021/07/12 00:10:43;;;;;;;5.40;4.90;;;22.70;99.90;;;22.80;58.83;101027.97;4904314;28;102954;-49
2021/07/12 00:13:09;;;;;;;5.13;4.73;;;22.70;99.90;;;22.83;58.82;101027.75;4901412;28;106795;-48
2021/07/12 00:15:35;;;;;;;4.57;4.27;;;22.70;99.90;;;22.84;58.73;101024.06;4908835;28;100126;-49
2021/07/12 00:18:02;;;;;;;5.30;4.90;;;22.80;99.90;;;22.88;58.62;101018.47;4890015;28;98957;-51
2021/07/12 00:20:28;;;;;;;4.80;4.40;;;22.80;99.90;;;22.90;58.58;101021.88;4911838;28;98581;-50
2021/07/12 00:22:57;;;;;;;6.77;6.17;;;22.80;99.90;;;22.88;58.53;101021.16;4912613;28;98086;-48
2021/07/12 00:25:24;;;;;;;9.33;8.33;;;22.80;99.90;;;22.79;58.38;101026.25;4895971;28;97213;-48
2021/07/12 00:27:50;;;;;;;5.50;5.10;;;22.60;99.90;;;22.72;59.13;101019.69;4890721;28;97775;-47
2021/07/12 00:30:20;;;;;;;4.70;4.30;;;22.50;99.90;;;22.74;59.25;101012.34;4896091;28;98497;-49
2021/07/12 00:32:47;;;;;;;5.40;5.00;;;22.50;99.90;;;22.77;59.02;101012.09;4910848;28;98856;-48
2021/07/12 00:35:14;;;;;;;4.70;4.30;;;22.60;99.90;;;22.79;58.84;101003.91;4912210;28;99991;-49
2021/07/12 00:37:41;;;;;;;5.67;5.20;;;22.70;99.90;;;22.80;58.81;101009.16;4895587;28;97366;-52
2021/07/12 00:40:10;;;;;;;5.10;4.70;;;22.70;99.90;;;22.82;58.67;101009.91;4913407;28;98701;-49
2021/07/12 00:42:36;;;;;;;6.10;5.40;;;22.70;99.90;;;22.80;58.71;101006.47;4910174;28;97928;-49
2021/07/12 00:45:12;;;;;;;5.53;5.13;;;22.70;99.90;;;22.78;58.74;100994.97;4892094;28;100943;-49
2021/07/12 00:47:39;;;;;;;5.03;4.63;;;22.70;99.90;;;22.76;58.93;101015.75;4907442;28;99783;-50
2021/07/12 00:50:09;;;;;;;8.60;7.70;;;22.60;99.90;;;22.73;58.80;101004.41;4906945;28;99277;-51
2021/07/12 00:52:36;;;;;;;5.30;4.90;;;22.60;99.90;;;22.68;59.21;101004.75;4894163;28;97644;-49
2021/07/12 00:55:21;;;;;;;5.87;5.37;;;22.50;99.90;;;22.70;59.14;101001.94;4891767;28;98366;-51
2021/07/12 00:57:48;;;;;;;5.80;5.30;;;22.50;99.90;;;22.64;59.28;101010.50;4888191;28;98283;-51
2021/07/12 01:00:16;;;;;;;9.40;6.47;;;22.40;99.90;;;22.61;59.36;101000.88;4895665;28;97647;-48
2021/07/12 01:02:43;;;;;;;5.93;5.53;;;22.40;99.90;;;22.61;59.42;101002.69;4888685;28;99017;-51
2021/07/12 01:05:13;;;;;;;5.67;5.20;;;22.40;99.90;;;22.61;59.39;100998.19;4892984;28;99162;-50
2021/07/12 01:07:40;;;;;;;8.20;7.40;;;22.40;99.90;;;22.59;59.23;100994.75;4907591;28;98480;-57
2021/07/12 01:10:07;;;;;;;13.80;10.50;;;22.40;99.90;;;22.49;59.38;100991.09;4889713;28;98777;-47
2021/07/12 01:13:23;;;;;;;5.50;5.10;;;22.20;99.90;;;22.45;59.76;100984.28;4890263;28;99832;-48
2021/07/12 01:16:07;;;;;;;5.70;5.30;;;22.10;99.90;;;22.45;59.92;100978.91;4897728;28;102668;-48
2021/07/12 01:18:41;;;;;;;5.10;4.70;;;22.20;99.90;;;22.46;59.71;100969.84;4912003;28;97968;-48
2021/07/12 01:21:12;;;;;;;5.57;5.07;;;22.20;99.90;;;22.46;59.69;100976.09;4908392;28;97983;-48
2021/07/12 01:24:11;;;;;;;6.23;5.70;;;22.30;99.90;;;22.44;59.83;100969.13;4911470;28;98077;-49
2021/07/12 01:27:18;;;;;;;5.80;5.30;;;22.20;99.90;;;22.44;59.87;100975.34;4888014;28;103472;-51
2021/07/12 01:30:16;;;;;;;5.43;5.03;;;22.20;99.90;;;22.40;59.75;100968.50;4888592;28;100360;-49
2021/07/12 01:33:21;;;;;;;9.07;8.33;;;22.20;99.90;;;22.32;60.12;100967.41;4905763;28;98342;-50
2021/07/12 01:36:36;;;;;;;5.30;4.90;;;22.00;99.90;;;22.29;60.44;100967.66;4898691;28;97795;-50
2021/07/12 01:39:14;;;;;;;5.30;4.90;;;21.90;99.90;;;22.31;60.50;100963.03;4886879;28;97355;-50
2021/07/12 01:42:02;;;;;;;5.47;5.07;;;22.00;99.90;;;22.34;60.12;100970.81;4928043;28;97928;-51
2021/07/12 01:44:49;;;;;;;5.60;5.20;;;22.10;99.90;;;22.39;60.09;100965.94;4928280;28;97267;-50
2021/07/12 01:47:34;;;;;;;5.67;5.00;;;22.10;99.90;;;22.44;59.95;100958.38;4927070;28;101087;-49
2021/07/12 01:50:24;;;;;;;5.07;4.67;;;22.20;99.90;;;22.49;59.89;100961.53;4913762;28;99423;-53
2021/07/12 01:53:02;;;;;;;5.10;4.70;;;22.30;99.90;;;22.49;59.68;100945.41;4906508;28;97357;-51
2021/07/12 01:56:12;;;;;;;5.27;4.87;;;22.30;99.90;;;22.50;59.63;100944.44;4918446;28;97383;-52
2021/07/12 01:58:49;;;;;;;4.97;4.60;;;22.30;99.90;;;22.53;59.64;100941.47;4909576;28;103871;-55
2021/07/12 02:01:16;;;;;;;5.70;5.30;;;22.40;99.90;;;22.53;59.48;100950.41;4916589;28;97793;-50
2021/07/12 02:03:43;;;;;;;4.90;4.50;;;22.40;99.90;;;22.56;59.43;100946.59;4935012;28;96919;-50
2021/07/12 02:06:11;;;;;;;8.10;7.30;;;22.40;99.90;;;22.49;59.28;100937.34;4902888;28;97058;-49
2021/07/12 02:08:46;;;;;;;7.27;6.67;;;22.30;99.90;;;22.45;59.54;100935.88;4919904;28;97827;-48
2021/07/12 02:11:16;;;;;;;5.43;5.03;;;22.20;99.90;;;22.42;59.84;100941.50;4915087;28;102248;-49
2021/07/12 02:13:46;;;;;;;6.20;5.67;;;22.20;99.90;;;22.39;59.87;100941.75;4931398;28;97167;-51
2021/07/12 02:16:13;;;;;;;9.93;8.43;;;22.10;99.90;;;22.33;59.57;100928.81;4927284;28;98351;-50
2021/07/12 02:18:42;;;;;;;9.33;8.43;;;22.10;99.90;;;22.25;59.88;100929.41;4932559;28;98166;-56
2021/07/12 02:21:11;;;;;;;10.40;9.30;;;21.90;99.90;;;22.19;60.27;100930.78;4897462;28;99848;-49
2021/07/12 02:23:40;;;;;;;5.80;5.30;;;21.80;99.90;;;22.15;60.40;100940.06;4903475;28;98017;-48
2021/07/12 02:26:07;;;;;;;6.17;5.67;;;21.80;99.90;;;22.11;60.48;100930.50;4904636;28;99808;-50
2021/07/12 02:28:33;;;;;;;9.50;6.33;;;21.70;99.90;;;22.09;60.75;100929.78;4932101;28;97309;-53
2021/07/12 02:31:00;;;;;;;7.10;6.37;;;21.70;99.90;;;22.06;60.81;100929.19;4898085;28;113263;-49
2021/07/12 02:33:27;;;;;;;6.03;5.53;;;21.60;99.90;;;22.02;61.07;100931.22;4897634;28;96925;-50
2021/07/12 02:35:54;;;;;;;5.80;5.30;;;21.60;99.90;;;22.07;60.86;100926.38;4931368;28;97306;-49
2021/07/12 02:38:22;;;;;;;5.50;5.10;;;21.70;99.90;;;22.11;60.81;100922.47;4921177;28;97750;-48
2021/07/12 02:40:50;;;;;;;5.27;4.87;;;21.80;99.90;;;22.14;60.67;100935.66;4928171;28;97419;-50
2021/07/12 02:43:17;;;;;;;6.53;6.00;;;21.90;99.90;;;22.13;60.46;100925.91;4891100;28;97578;-49
2021/07/12 02:45:51;;;;;;;5.20;4.80;;;21.80;99.90;;;22.13;60.79;100931.28;5052570;27;99190;-52
2021/07/12 02:48:17;;;;;;;4.67;4.37;;;21.80;99.90;;;22.14;60.77;100927.59;5066310;27;96973;-51
2021/07/12 02:50:45;;;;;;;5.90;5.47;;;21.90;99.90;;;22.15;60.43;100934.69;5041051;27;101917;-47
2021/07/12 02:53:19;;;;;;;6.67;6.07;;;21.90;99.90;;;22.15;60.70;100929.31;5033274;27;98287;-49
2021/07/12 02:55:45;;;;;;;5.03;4.63;;;21.90;99.90;;;22.16;60.49;100925.66;5025385;27;97448;-50
2021/07/12 02:58:11;;;;;;;10.20;7.57;;;21.90;99.90;;;22.15;60.35;100928.47;5035720;27;97501;-50
2021/07/12 03:00:37;;;;;;;9.37;7.40;;;21.90;99.90;;;22.12;60.56;100924.16;5036889;27;120854;-48
2021/07/12 03:03:03;;;;;;;5.60;5.10;;;21.80;99.90;;;22.12;60.70;100929.53;5028595;27;97175;-48
2021/07/12 03:05:29;;;;;;;5.27;4.70;;;21.80;99.90;;;22.16;60.63;100927.47;5035215;27;102224;-47
2021/07/12 03:08:11;;;;;;;5.83;5.33;;;21.90;99.90;;;22.20;60.40;100927.09;5023865;27;97589;-49
2021/07/12 03:10:59;;;;;;;4.63;4.33;;;21.90;99.90;;;22.23;60.49;100926.84;5033494;27;98591;-49
2021/07/12 03:13:41;;;;;;;5.20;4.80;;;22.00;99.90;;;22.30;60.16;100921.88;5020148;27;103638;-51
2021/07/12 03:16:08;;;;;;;5.73;4.40;;;22.10;99.90;;;22.37;59.93;100922.19;5031714;27;98380;-50
2021/07/12 03:18:51;;;;;;;4.40;4.10;;;22.20;99.90;;;22.46;59.76;100916.09;5007708;27;99121;-49
2021/07/12 03:21:19;;;;;;;4.53;4.20;;;22.30;99.90;;;22.49;59.65;100910.47;5040605;27;104621;-49
2021/07/12 03:23:48;;;;;;;4.87;4.50;;;22.40;99.90;;;22.52;59.46;100899.47;5025403;27;97443;-50
2021/07/12 03:26:17;;;;;;;4.17;3.87;;;22.40;99.90;;;22.54;59.25;100902.88;5047291;27;98376;-49
2021/07/12 03:28:44;;;;;;;4.77;4.47;;;22.40;99.90;;;22.53;59.36;100895.78;5022153;27;98288;-51
2021/07/12 03:31:11;;;;;;;4.73;4.40;;;22.40;99.90;;;22.57;59.21;100891.88;5029049;27;99631;-51
2021/07/12 03:33:39;;;;;;;5.10;4.70;;;22.50;99.90;;;22.59;59.35;100889.94;5012940;27;99814;-49
2021/07/12 03:36:06;;;;;;;4.43;4.13;;;22.50;99.90;;;22.61;59.01;100889.78;5022785;27;97229;-50
2021/07/12 03:38:32;;;;;;;4.63;4.33;;;22.50;99.90;;;22.63;59.15;100886.00;5045931;27;100883;-49
2021/07/12 03:41:01;;;;;;;4.37;4.07;;;22.50;99.90;;;22.66;58.96;100879.50;5021599;27;98016;-49
2021/07/12 03:43:27;;;;;;;4.50;4.20;;;22.60;99.90;;;22.62;58.99;100873.53;5027082;27;100159;-49
2021/07/12 03:46:00;;;;;;;8.30;7.50;;;22.50;99.90;;;22.59;58.80;100889.06;5027100;27;97289;-47
2021/07/12 03:48:37;;;;;;;10.57;9.57;;;22.50;99.90;;;22.51;58.83;100892.38;5044459;27;97263;-48
2021/07/12 03:51:06;;;;;;;9.33;8.53;;;22.30;99.90;;;22.38;59.03;100886.28;5029054;27;99532;-51
2021/07/12 03:53:33;;;;;;;8.77;8.07;;;22.00;99.90;;;22.22;59.64;100892.91;5024423;27;96962;-49
2021/07/12 03:56:01;;;;;;;6.07;5.57;;;21.80;99.90;;;22.13;60.22;100877.56;5023438;27;98348;-48
2021/07/12 03:58:27;;;;;;;4.97;4.57;;;21.70;99.90;;;22.13;60.50;100882.03;5030901;27;97578;-49
2021/07/12 04:00:53;;;;;;;6.30;5.80;;;21.70;99.90;;;22.11;60.45;100879.47;5015398;27;99755;-48
2021/07/12 04:03:19;;;;;;;6.83;6.30;;;21.70;99.90;;;22.07;60.43;100882.53;5019692;27;97120;-52
2021/07/12 04:05:45;;;;;;;5.10;4.70;;;21.70;99.90;;;22.06;60.82;100884.38;5014676;27;97302;-47
2021/07/12 04:08:11;;;;;;;5.20;4.70;;;21.70;99.90;;;22.09;60.72;100881.44;5014703;27;97031;-51
2021/07/12 04:10:37;;;;;;;5.00;4.60;;;21.80;99.90;;;22.15;60.47;100872.91;5013007;27;100728;-49
2021/07/12 04:13:04;;;;;;;4.70;4.33;;;21.90;99.90;;;22.21;60.35;100866.16;5012694;27;97916;-51
2021/07/12 04:15:30;;;;;;;5.93;5.53;;;22.00;99.90;;;22.21;60.06;100869.72;5017095;27;97227;-48
2021/07/12 04:17:56;;;;;;;6.63;6.03;;;22.00;99.90;;;22.21;60.22;100867.03;5000546;27;97040;-47
2021/07/12 04:20:22;;;;;;;5.10;4.70;;;22.00;99.90;;;22.17;60.40;100868.25;5032565;27;99365;-47
2021/07/12 04:22:48;;;;;;;4.87;4.53;;;21.90;99.90;;;22.22;60.31;100866.03;5011662;27;97147;-51
2021/07/12 04:25:14;;;;;;;5.17;4.77;;;22.00;99.90;;;22.30;60.08;100861.91;5038172;27;99748;-48
2021/07/12 04:27:41;;;;;;;5.97;5.47;;;22.10;99.90;;;22.32;59.87;100859.94;5028203;27;97253;-50
2021/07/12 04:30:09;;;;;;;6.47;5.97;;;22.20;99.90;;;22.31;59.85;100866.28;5015222;27;100846;-48
2021/07/12 04:32:35;;;;;;;7.67;7.07;;;22.10;99.90;;;22.25;59.82;100865.78;5015825;27;97456;-49
2021/07/12 04:35:02;;;;;;;11.47;10.40;;;22.00;99.90;;;22.18;59.89;100869.97;5010598;27;97101;-49
2021/07/12 04:37:28;;;;;;;11.17;10.07;;;21.80;99.90;;;22.11;60.34;100876.78;5013338;27;97181;-51
2021/07/12 04:39:53;;;;;;;9.27;7.90;;;21.60;99.90;;;22.04;60.55;100877.38;4999663;27;100239;-48
2021/07/12 04:42:19;;;;;;;5.93;5.50;;;21.50;99.90;;;21.99;60.85;100872.41;5016539;27;97454;-49
2021/07/12 04:44:45;;;;;;;5.97;5.47;;;21.50;99.90;;;22.00;61.05;100879.47;5004688;27;97296;-53
2021/07/12 04:47:11;;;;;;;6.93;6.43;;;21.50;99.90;;;21.98;60.95;100873.34;5013466;27;97219;-49
2021/07/12 04:49:37;;;;;;;5.83;5.33;;;21.60;99.90;;;22.04;60.90;100862.13;5008375;27;104603;-49
2021/07/12 04:52:04;;;;;;;5.27;4.87;;;21.70;99.90;;;22.09;60.72;100859.94;5014400;27;97503;-50
2021/07/12 04:54:29;;;;;;;5.33;4.93;;;21.80;99.90;;;22.19;60.37;100858.25;5018014;27;97113;-52
2021/07/12 04:56:55;;;;;;;8.33;7.63;;;22.00;99.90;;;22.22;60.15;100852.59;5010373;27;97338;-48
2021/07/12 04:59:27;;;;;;;7.40;6.80;;;22.00;99.90;;;22.21;60.11;100858.97;5014134;27;96756;-49
2021/07/12 05:01:53;;;;;;;5.13;4.73;;;22.00;99.90;;;22.22;60.46;100860.66;5010347;27;98305;-51
2021/07/12 05:04:19;;;;;;;5.00;4.70;;;21.90;99.90;;;22.24;60.26;100853.34;5019914;27;97922;-50
2021/07/12 05:06:44;;;;;;;4.63;4.33;;;22.00;99.90;;;22.26;60.16;100850.53;5008307;27;99696;-49
2021/07/12 05:09:10;;;;;;;4.90;4.57;;;22.00;99.90;;;22.29;59.98;100849.44;5019801;27;97144;-51
2021/07/12 05:11:36;;;;;;;5.20;4.80;;;22.10;99.90;;;22.34;59.94;100836.47;5015567;27;96821;-49
2021/07/12 05:14:02;;;;;;;4.83;4.53;;;22.10;99.90;;;22.40;59.73;100841.31;5017898;27;97395;-48
2021/07/12 05:16:28;;;;;;;5.27;4.77;;;22.20;99.90;;;22.44;59.52;100842.81;5016778;27;96863;-51
2021/07/12 05:18:55;;;;;;;5.37;4.97;;;22.30;99.90;;;22.47;59.55;100845.22;5008661;27;98185;-48
2021/07/12 05:21:21;;;;;;;4.70;4.40;;;22.30;99.90;;;22.49;59.30;100833.38;5018326;27;97221;-48
2021/07/12 05:23:47;;;;;;;5.10;4.70;;;22.40;99.90;;;22.53;59.21;100842.03;5003533;27;96985;-50
2021/07/12 05:26:13;;;;;;;6.10;5.60;;;22.40;99.90;;;22.52;59.11;100854.63;5009703;27;97178;-48
2021/07/12 05:28:39;;;;;;;5.23;4.83;;;22.40;99.90;;;22.51;59.29;100850.22;5009280;27;99363;-51
2021/07/12 05:31:06;;;;;;;4.90;4.60;;;22.40;99.90;;;22.49;59.26;100852.19;5011924;27;103283;-50
2021/07/12 05:33:32;;;;;;;4.70;4.40;;;22.30;99.90;;;22.50;59.39;100847.66;5032230;27;97683;-47
2021/07/12 05:35:58;;;;;;;5.07;4.77;;;22.30;99.90;;;22.53;59.33;100836.66;5012038;27;98380;-48
2021/07/12 05:38:24;;;;;;;4.87;4.47;;;22.40;99.90;;;22.58;59.23;100834.47;5012790;27;97804;-48
2021/07/12 05:40:49;;;;;;;5.23;4.73;;;22.50;99.90;;;22.63;59.01;100832.22;5011741;27;103303;-50
2021/07/12 05:43:15;;;;;;;5.00;4.60;;;22.60;99.90;;;22.67;58.84;100828.28;5016160;27;98157;-49
2021/07/12 05:45:41;;;;;;;5.17;4.77;;;22.60;99.90;;;22.71;58.60;100840.53;5008190;27;100807;-50
2021/07/12 05:48:09;;;;;;;4.80;4.43;;;22.70;99.90;;;22.75;58.61;100847.34;5030806;27;99943;-48
2021/07/12 05:50:36;;;;;;;4.93;4.63;;;22.70;99.90;;;22.76;58.34;100843.66;4993535;27;99024;-49
2021/07/12 05:53:03;;;;;;;4.50;4.20;;;22.70;99.90;;;22.78;58.59;100844.38;5013384;27;97272;-50
2021/07/12 05:55:29;;;;;;;4.67;4.30;;;22.70;99.90;;;22.78;58.51;100849.75;5012962;27;97147;-48
2021/07/12 05:57:55;;;;;;;4.27;3.97;;;22.70;99.90;;;22.80;58.40;100845.09;5008079;27;97666;-48
2021/07/12 06:00:21;;;;;;;4.93;4.53;;;22.80;99.90;;;22.84;58.43;100857.34;5015093;27;98075;-51
2021/07/12 06:02:47;;;;;;;4.97;4.57;;;22.80;99.90;;;22.87;58.23;100855.41;5009994;27;98563;-49
2021/07/12 06:05:13;;;;;;;4.80;4.50;;;22.90;99.90;;;22.89;58.23;100845.38;5013595;27;97096;-48
2021/07/12 06:07:40;;;;;;;4.97;4.57;;;22.90;99.90;;;22.88;58.25;100840.97;5010734;27;99838;-56
2021/07/12 06:10:07;;;;;;;4.80;4.40;;;22.90;99.90;;;22.89;58.20;100832.75;5013324;27;103073;-48
2021/07/12 06:12:34;;;;;;;5.30;4.80;;;22.90;99.90;;;22.93;58.09;100836.03;5013583;27;97210;-49
2021/07/12 06:15:00;;;;;;;5.13;4.73;;;22.90;99.90;;;22.94;58.21;100835.06;5026044;27;98794;-48
2021/07/12 06:17:26;;;;;;;4.83;4.43;;;22.90;99.90;;;22.96;58.02;100833.09;5012369;27;98144;-49
2021/07/12 06:19:52;;;;;;;5.73;4.93;;;23.00;99.90;;;22.92;58.23;100837.03;5008182;27;100377;-52
2021/07/12 06:22:17;;;;;;;4.70;4.30;;;23.00;99.90;;;22.95;58.11;100836.75;5015212;27;97612;-50
2021/07/12 06:24:43;;;;;;;5.13;4.73;;;23.00;99.90;;;23.00;58.02;100839.91;5008403;27;97116;-49
2021/07/12 06:27:09;;;;;;;5.17;4.77;;;23.00;99.90;;;22.99;57.96;100832.81;5015568;27;97870;-49
2021/07/12 06:29:35;;;;;;;5.00;4.60;;;23.00;99.90;;;23.02;58.00;100828.06;5011000;27;96966;-49
2021/07/12 06:32:01;;;;;;;5.23;4.83;;;23.00;99.90;;;23.05;57.79;100826.94;5009277;27;97232;-50
2021/07/12 06:34:26;;;;;;;5.40;4.90;;;23.00;99.90;;;23.04;57.95;100823.41;5021009;27;96911;-48
2021/07/12 06:36:53;;;;;;;8.10;7.23;;;23.00;99.90;;;23.02;57.89;100828.06;5013300;27;101856;-50
2021/07/12 06:39:18;;;;;;;11.07;9.97;;;23.00;99.90;;;23.02;57.83;100825.38;5033672;27;97127;-50
2021/07/12 06:41:44;;;;;;;12.23;11.03;;;23.00;99.90;;;22.94;58.37;100829.69;5021324;27;96997;-51
2021/07/12 06:44:11;;;;;;;5.80;5.40;;;22.80;99.90;;;22.92;58.24;100834.34;5013123;27;97643;-49
2021/07/12 06:46:36;;;;;;;5.33;4.93;;;22.80;99.90;;;22.88;58.41;100836.44;5011488;27;100255;-51
2021/07/12 06:49:03;;;;;;;5.50;5.10;;;22.70;99.90;;;22.84;58.51;100841.19;5002589;27;98078;-49
2021/07/12 06:51:29;;;;;;;4.90;4.50;;;22.70;99.90;;;22.85;58.45;100831.28;4996512;27;97577;-49
2021/07/12 06:53:55;;;;;;;5.80;5.40;;;22.80;99.90;;;22.86;58.43;100838.41;5000680;27;99432;-51
2021/07/12 06:56:21;;;;;;;8.67;7.97;;;22.80;99.90;;;22.87;58.25;100823.13;5014349;27;98431;-52
2021/07/12 06:58:47;;;;;;;5.80;5.30;;;22.80;99.90;;;22.83;58.30;100823.38;5002088;27;97333;-48
2021/07/12 07:01:13;;;;;;;5.80;5.30;;;22.80;99.90;;;22.83;58.40;100812.59;5014602;27;97513;-51
2021/07/12 07:03:39;;;;;;;5.70;5.30;;;22.70;99.90;;;22.83;58.38;100809.91;5014636;27;96963;-54
2021/07/12 07:06:05;;;;;;;7.10;6.57;;;22.70;99.90;;;22.82;58.26;100800.16;5004077;27;104405;-52
2021/07/12 07:08:31;;;;;;;7.43;6.83;;;22.70;99.90;;;22.82;58.08;100802.84;5029212;27;97985;-49
2021/07/12 07:10:57;;;;;;;6.07;5.57;;;22.70;99.90;;;22.81;58.30;100790.34;5003544;27;97572;-50
2021/07/12 07:13:24;;;;;;;5.50;5.10;;;22.70;99.90;;;22.83;58.18;100791.09;5011697;27;97819;-49
2021/07/12 07:15:50;;;;;;;5.77;5.37;;;22.70;99.90;;;22.80;58.32;100804.78;5003868;27;98292;-52
2021/07/12 07:18:16;;;;;;;6.07;5.57;;;22.80;99.90;;;22.81;58.42;100794.88;5024232;27;97308;-49
2021/07/12 07:20:43;;;;;;;7.53;6.90;;;22.80;99.90;;;22.85;58.41;100794.50;5002693;27;97182;-53
2021/07/12 07:23:09;;;;;;;6.37;5.87;;;22.90;99.90;;;22.87;58.44;100796.22;5004676;27;98798;-49
2021/07/12 07:25:35;;;;;;;5.73;5.33;;;22.80;99.90;;;22.83;58.44;100791.09;5003182;27;98937;-49
2021/07/12 07:28:02;;;;;;;5.20;4.80;;;22.80;99.90;;;22.84;57.89;100787.41;4998648;27;98575;-48
2021/07/12 07:30:29;;;;;;;8.40;7.70;;;22.80;99.90;;;22.87;58.30;100790.84;5010480;27;97042;-50
2021/07/12 07:32:56;;;;;;;8.10;7.40;;;22.80;99.90;;;22.84;58.24;100792.78;5003911;27;99109;-49
2021/07/12 07:35:22;;;;;;;7.73;7.03;;;22.80;99.90;;;22.82;57.91;100784.00;5016299;27;97665;-47
2021/07/12 07:37:48;;;;;;;6.13;5.63;;;22.70;99.90;;;22.82;58.00;100784.00;5007599;27;112773;-51
2021/07/12 07:40:18;;;;;;;5.90;5.50;;;22.80;99.90;;;22.83;58.44;100782.16;5017117;27;96576;-49
2021/07/12 07:42:44;;;;;;;6.20;5.70;;;22.80;99.90;;;22.82;58.48;100784.00;4991649;27;99875;-50
2021/07/12 07:45:15;;;;;;;5.80;5.30;;;22.80;99.90;;;22.84;58.44;100775.81;5016974;27;97054;-48
2021/07/12 07:47:43;;;;;;;5.50;5.10;;;22.80;99.90;;;22.80;58.56;100777.88;4987619;27;97450;-51
2021/07/12 07:50:11;;;;;;;7.10;6.50;;;22.90;99.90;;;22.84;58.84;100765.91;4981751;27;97820;-48
2021/07/12 07:52:37;;;;;;;6.20;5.70;;;22.90;99.90;;;22.85;58.56;100767.59;4983822;27;97406;-48
2021/07/12 07:55:08;;;;;;;5.67;5.23;;;22.90;99.90;;;22.87;58.52;100755.91;4978684;27;110019;-49
2021/07/12 07:57:37;;;;;;;5.90;5.40;;;22.90;99.90;;;22.89;58.49;100756.63;4981001;27;98131;-53
2021/07/12 08:00:21;;;;;;;6.10;5.60;;;22.90;99.90;;;22.96;58.37;100763.16;4986382;27;98058;-51
2021/07/12 08:02:47;;;;;;;7.60;6.90;;;23.00;99.90;;;22.99;58.47;100758.34;4978608;27;99176;-48
2021/07/12 08:05:13;;;;;;;6.70;6.10;;;22.90;99.90;;;23.00;58.07;100765.47;4982297;27;98750;-51
2021/07/12 08:07:40;;;;;;;8.27;5.80;;;22.90;99.90;;;22.99;58.06;100758.34;4984105;27;97195;-58
2021/07/12 08:10:09;;;;;;;5.67;5.13;;;22.90;99.90;;;22.98;58.06;100745.03;4993254;27;97665;-50
2021/07/12 08:12:36;;;;;;;5.83;5.37;;;23.00;99.90;;;22.96;58.23;100747.00;4973012;27;97965;-57
2021/07/12 08:15:12;;;;;;;5.60;5.20;;;23.00;99.90;;;22.92;58.29;100732.13;4966560;27;96934;-57
2021/07/12 08:17:40;;;;;;;5.30;4.90;;;23.00;99.90;;;22.96;58.17;100729.03;4987495;27;99214;-55
2021/07/12 08:20:10;;;;;;;5.70;5.20;;;23.00;99.90;;;23.01;57.93;100717.91;4986111;27;97155;-57
2021/07/12 08:22:36;;;;;;;6.73;6.13;;;23.00;99.90;;;22.93;58.85;100726.63;4989728;27;97573;-56
2021/07/12 08:25:04;;;;;;;5.83;5.33;;;23.00;99.90;;;22.96;59.52;100726.34;5000588;27;98337;-49
2021/07/12 08:27:32;;;;;;;6.50;5.93;;;22.90;99.90;;;22.89;59.36;100729.72;4987521;27;98705;-52
2021/07/12 08:29:58;;;;;;;5.82;5.28;;;22.90;99.90;;;22.84;60.34;100725.56;4984229;27;97340;-45
2021/07/12 08:32:25;;;;;;;6.57;5.97;;;22.90;99.90;;;22.99;60.04;100727.91;4977546;27;97445;-46
2021/07/12 08:34:51;;;;;;;5.35;4.82;;;23.00;99.90;;;23.02;58.36;100716.91;4981863;27;98205;-45
2021/07/12 08:38:00;;;;;;;14.50;11.47;;;23.00;99.90;;;22.89;59.99;100713.59;4834179;27;99441;-50
2021/07/12 08:40:28;;;;;;;987.27;798.80;;;22.90;99.90;;;22.94;60.07;100722.09;4940270;27;97567;-57
2021/07/12 08:42:56;;;;;;;324.93;249.03;;;22.90;99.90;;;23.04;59.24;100714.94;4983800;27;97158;-57
2021/07/12 08:45:23;;;;;;;319.07;234.40;;;23.00;99.90;;;23.06;57.91;100710.28;4984111;27;97631;-59
2021/07/12 08:47:50;;;;;;;1078.80;809.87;;;23.10;99.90;;;23.04;59.18;100702.34;4981887;27;101221;-59
2021/07/12 08:50:17;;;;;;;284.88;232.52;;;23.10;99.90;;;23.09;57.55;100688.47;4986232;27;97299;-59
2021/07/12 08:52:49;;;;;;;666.22;528.22;;;23.10;99.90;;;23.13;58.26;100676.47;4979477;27;98939;-58
2021/07/12 08:55:16;;;;;;;573.83;443.65;;;23.10;99.90;;;23.10;58.44;100668.66;4981085;27;98350;-60
2021/07/12 08:58:10;;;;;;;458.48;334.98;;;23.10;99.90;;;23.02;58.71;100665.81;4974093;27;98277;-52
2021/07/12 09:00:45;;;;;;;251.17;156.10;;;23.10;99.90;;;23.06;58.35;100667.25;4979933;27;98899;-54
2021/07/12 09:03:29;;;;;;;134.10;86.97;;;23.10;99.90;;;23.13;58.02;100668.38;4978229;27;99057;-58
2021/07/12 09:06:03;;;;;;;173.73;111.07;;;23.10;99.90;;;23.04;58.54;100677.28;4975784;27;99074;-57
2021/07/12 09:08:38;;;;;;;42.50;29.47;;;23.10;99.90;;;23.04;58.44;100670.06;4979809;27;99256;-62
2021/07/12 09:11:10;;;;;;;23.40;16.37;;;23.10;99.90;;;23.05;58.45;100654.78;4978791;27;97471;-56
2021/07/12 09:14:10;;;;;;;18.90;13.70;;;23.10;99.90;;;22.98;58.62;100657.13;4980930;27;96980;-58
2021/07/12 09:16:42;;;;;;;15.40;11.00;;;23.00;99.90;;;22.93;58.75;100656.69;4961305;27;101809;-51
2021/07/12 09:19:19;;;;;;;7.17;6.27;;;23.00;99.90;;;23.04;56.59;100662.00;4977424;27;101888;-52
2021/07/12 09:21:58;;;;;;;4.70;4.22;;;23.10;99.90;;;23.11;56.60;100659.59;4979073;27;98098;-58
2021/07/12 09:24:27;;;;;;;6.00;5.37;;;23.10;99.90;;;23.15;56.65;100666.44;4981638;27;97513;-62
2021/07/12 09:26:59;;;;;;;4.17;3.67;;;23.10;99.90;;;23.17;56.90;100672.53;4960271;27;99453;-53
2021/07/12 09:29:51;;;;;;;6.50;6.00;;;23.10;99.90;;;23.15;57.99;100666.44;4983141;27;97594;-57
2021/07/12 09:32:23;;;;;;;5.77;5.27;;;23.20;99.90;;;23.00;58.31;100665.06;4978457;27;97515;-61
2021/07/12 09:35:01;;;;;;;6.40;5.90;;;23.10;99.90;;;22.96;58.78;100666.31;4977637;27;98915;-53
2021/07/12 09:37:29;;;;;;;5.67;5.17;;;23.00;99.90;;;23.00;58.43;100668.63;4989351;27;97701;-58
2021/07/12 09:39:56;;;;;;;6.13;5.63;;;23.10;99.90;;;22.99;58.66;100660.69;4967939;27;97644;-61
2021/07/12 09:42:28;;;;;;;5.63;5.10;;;23.10;99.90;;;22.96;58.47;100660.94;4997676;27;98675;-56
2021/07/12 09:45:06;;;;;;;5.70;5.30;;;23.10;99.90;;;22.95;58.50;100653.88;4978529;27;97198;-58
2021/07/12 09:47:38;;;;;;;5.10;4.70;;;23.00;99.90;;;22.91;58.73;100652.44;4979234;27;98263;-54
2021/07/12 09:50:15;;;;;;;5.28;4.88;;;23.00;99.90;;;22.95;58.63;100648.50;4978291;27;98278;-56
2021/07/12 09:52:51;;;;;;;5.10;4.70;;;23.00;99.90;;;22.94;58.63;100646.78;4977356;27;97521;-51
2021/07/12 09:55:23;;;;;;;5.10;4.60;;;23.00;99.90;;;22.89;58.94;100643.66;4981127;27;97738;-61
2021/07/12 09:58:27;;;;;;;5.25;4.85;;;23.00;99.90;;;22.90;58.94;100645.38;4984166;27;99659;-55
2021/07/12 10:00:53;;;;;;;5.03;4.63;;;23.00;99.90;;;22.88;58.86;100650.88;4977236;27;98435;-57
2021/07/12 10:03:21;;;;;;;4.93;4.53;;;23.00;99.90;;;22.91;58.85;100641.69;4978245;27;97143;-57
2021/07/12 10:05:49;;;;;;;3.93;3.63;;;23.00;99.90;;;22.89;57.53;100639.13;4979819;27;98073;-53
2021/07/12 10:08:15;;;;;;;5.03;4.63;;;23.00;99.90;;;23.00;58.47;100636.34;4982367;27;98418;-55
2021/07/12 10:10:42;;;;;;;5.20;4.70;;;23.00;99.90;;;23.00;58.57;100635.47;4972748;27;97362;-57
2021/07/12 10:13:08;;;;;;;4.30;4.00;;;23.10;99.90;;;22.96;58.59;100634.06;4982308;27;97820;-59
2021/07/12 10:15:36;;;;;;;4.57;4.28;;;23.00;99.90;;;22.94;58.48;100625.28;4980229;27;97227;-57
2021/07/12 10:18:05;;;;;;;3.95;3.65;;;23.00;99.90;;;22.98;56.13;100621.31;4976223;27;99881;-57
2021/07/12 10:20:33;;;;;;;4.53;4.23;;;23.10;99.90;;;22.92;58.62;100617.34;4973951;27;98830;-59
2021/07/12 10:23:01;;;;;;;4.22;3.83;;;23.00;99.90;;;22.95;57.79;100616.22;4956412;27;97522;-50